Monday, December 18, 2017, 5:18 PM EST
Back to Local

KJST, Johnstown-cambria Co Airport

Location: Johnstown, PA, United States Lat: 40.317
Local Time: 5:18 PM EST (22:18 GMT) Lon: -78.833
Time Zone: US/Eastern Elev: 2283 ft

Show me the last for .
Show Coded

Time T Td Feel RH Dir Speed Gust Alt SLP Vis Weather Sky Remarks
2017-12-18 16:54 39 36 27 88 260° 23 29 29.92 29.96 10 BKN012 BKN017 OVC030 Peak wind: 31 mph (27 kts) from 250° at 43 min
2017-12-18 16:19 39 37 28 92 260° 18 28 29.92 - 10 OVC011 None
2017-12-18 15:54 39 37 28 92 260° 17 24 29.92 29.97 10 OVC009 Peak wind: 31 mph (27 kts) from 250° at 17 min
1-hr Precip Total: Trace
6-hr Precip Total (4pm): 0.00"
2017-12-18 15:09 38 37 27 96 260° 17 25 29.92 - 6 BR BKN006 OVC010 1-hr Precip Total: Trace
2017-12-18 14:54 38 37 27 96 260° 16 25 29.92 29.97 2 -RA BR OVC006 1-hr Precip Total: Trace
2017-12-18 14:40 38 37 28 96 260° 20 - 29.91 - 10 OVC006 None
2017-12-18 14:27 38 37 26 96 260° 18 26 29.91 - 9 OVC004 None
2017-12-18 14:13 38 38 29 100 250° 15 - 29.91 - 5 BR OVC002 None
2017-12-18 14:06 38 37 27 96 240° 14 22 29.92 - 2 BR OVC002 None
2017-12-18 13:54 37 37 29 100 240° 12 - 29.92 29.97 0 FG VV002 None
2017-12-18 13:39 37 37 27 100 230° 14 20 29.93 - 0 BR VV002 None
2017-12-18 12:54 37 36 29 95 230° 13 - 29.95 30.00 0 FG VV002 6-hr Min Temp (1pm): 34.0°F
6-hr Max Temp (1pm): 37.0°F
2017-12-18 12:16 36 35 28 96 250° 10 - 29.96 - 0 FG VV002 None
2017-12-18 12:06 36 35 29 96 250° 9 - 29.97 - 0 FG OVC002 None
2017-12-18 11:54 36 35 28 96 250° 10 - 29.98 30.03 1 BR OVC003 None
2017-12-18 11:18 36 34 28 92 240° 10 - 29.99 - 7 OVC004 None
2017-12-18 10:54 36 34 30 92 230° 8 - 30.00 30.05 9 OVC007 None
2017-12-18 10:34 36 33 30 89 210° 7 - 30.01 - 10 OVC009 None
2017-12-18 10:12 36 33 30 89 200° 8 - 30.02 - 10 BKN013 OVC018 None
2017-12-18 09:54 36 33 31 89 210° 6 - 30.02 30.07 10 OVC018 None
2017-12-18 09:44 36 33 30 89 220° 7 - 30.02 - 10 BKN017 OVC031 None
2017-12-18 09:16 35 32 29 88 230° 7 - 30.02 - 10 SCT010 OVC032 None
2017-12-18 08:54 35 32 30 88 230° 6 - 30.02 30.07 10 OVC009 None
2017-12-18 08:26 34 32 29 92 220° 6 - 30.02 - 10 OVC009 None
2017-12-18 07:54 34 31 29 88 230° 6 - 30.02 30.08 10 OVC011 None
2017-12-18 07:26 34 31 28 88 230° 7 - 30.03 - 10 BKN012 OVC039 None
2017-12-18 06:54 35 31 29 84 220° 7 - 30.02 30.08 10 OVC040 24-hr Precip Total (7am): 0.04"
6-hr Min Temp (7am): 33.1°F
6-hr Max Temp (7am): 37.0°F
2017-12-18 05:54 34 29 27 81 240° 8 - 30.02 30.08 10 CLR None
2017-12-18 04:54 36 29 29 75 230° 9 - 30.02 30.07 10 BKN050 None
2017-12-18 03:54 36 29 29 75 230° 9 - 30.04 30.09 10 FEW027 OVC060 None
2017-12-18 03:51 36 28 29 74 220° 9 - 30.04 - 10 FEW027 OVC060 None
2017-12-18 02:54 36 29 30 75 230° 8 - 30.03 30.09 10 BKN027 OVC034 None
2017-12-18 01:54 36 29 28 75 260° 12 - 30.04 30.09 10 OVC042 None
2017-12-18 00:54 36 30 30 78 230° 8 - 30.03 30.08 10 OVC050 6-hr Precip Total (1am): 0.00"
6-hr Min Temp (1am): 35.1°F
6-hr Max Temp (1am): 37.0°F
2017-12-17 23:54 37 29 30 72 240° 9 - 30.05 30.10 10 SCT041 BKN050 OVC060 24-hr Min Temp (12am): 33.1°F
24-hr Max Temp (12am): 37.9°F
2017-12-17 22:54 37 30 30 75 200° 9 - 30.05 30.10 10 OVC049 None
2017-12-17 21:54 35 31 31 84 190° 5 - 30.06 30.12 10 OVC065 6-hr Precip Total (10pm): 0.00"
2017-12-17 20:54 36 31 32 81 240° 5 - 30.08 30.14 10 SCT030 OVC060 None
2017-12-17 20:41 36 32 31 85 200° 6 - 30.08 - 10 BKN030 OVC060 None
2017-12-17 19:54 35 32 29 88 190° 7 - 30.09 30.15 10 OVC024 1-hr Precip Total: Trace
2017-12-17 18:54 35 32 30 88 220° 6 - 30.09 30.15 8 -SN OVC023 1-hr Precip Total: 0.01"
6-hr Precip Total (7pm): 0.04"
6-hr Min Temp (7pm): 35.1°F
6-hr Max Temp (7pm): 37.9°F
2017-12-17 18:36 35 32 29 88 200° 7 - 30.10 - 10 UP BKN023 OVC048 1-hr Precip Total: 0.01"
2017-12-17 17:54 35 32 29 88 200° 8 - 30.09 30.15 8 -RA OVC040 1-hr Precip Total: 0.03"

Support USWX by starting your Amazon purchase here.